Thunder radar more information blitzortung!


Radar de pluja more information rain snow radar


Visita la nostra xarxa de llocs de meteo:

Template documentation
and downloads

And another site



No particular awareness of the weather is required.    There are no Weather-warnings

Pagina Historial Weather Underground text

Diari Resum January 11, 2016 Unitats:  Mètric    Imperial   Tant
« Previous Dia
SegĂźent Dia »
Diari Setmana Mensual Anual Personalitzada
  Maxima: Minima: Media:
Temperatura: 17.4 °C 10.2 °C 14.3 °C
Punt de rosada: 6.6 °C -2.8 °C 0.1 °C
Humitat: 60 % 31 % 38 %
Wind Speed: 27.8 km/h 5.6 km/h 11.3 km/h
RĂ fegues de vent: 27.8 km/h - -
Vent:- - WSW
Pression baro: 1013.8 hPa 1006.0 hPa -
Precipitacions: 0.0 mm    
Historical Graphs
 
 
Dades de taula per January 11, 2016
Temps Temperatura Punt de rosada Pression baro Vent Wind Speed RĂ fegues de vent Humitat Rainfall Rate (Hourly)
11:21 14.2 °C 6.6 °C 1008.0 hPa WSW 11.1 km/h 11.1 km/h 60 % 0.0 mm
11:31 14.4 °C 6.2 °C 1008.0 hPa WSW 14.8 km/h 14.8 km/h 58 % 0.0 mm
11:36 14.6 °C 6.2 °C 1008.0 hPa SW 14.8 km/h 14.8 km/h 57 % 0.0 mm
11:41 14.7 °C 6.0 °C 1007.0 hPa SW 13.0 km/h 13.0 km/h 56 % 0.0 mm
11:46 14.9 °C 5.9 °C 1007.0 hPa WSW 16.9 km/h 16.9 km/h 55 % 0.0 mm
11:51 14.8 °C 5.3 °C 1007.0 hPa West 16.7 km/h 16.7 km/h 53 % 0.0 mm
11:56 14.8 °C 4.8 °C 1007.0 hPa WSW 16.7 km/h 16.7 km/h 51 % 0.0 mm
12:01 14.7 °C 4.7 °C 1007.0 hPa West 14.8 km/h 14.8 km/h 51 % 0.0 mm
12:06 14.7 °C 4.7 °C 1007.0 hPa SW 20.4 km/h 20.4 km/h 51 % 0.0 mm
12:11 15.0 °C 4.7 °C 1008.0 hPa WSW 13.0 km/h 13.0 km/h 50 % 0.0 mm
12:16 15.3 °C 4.6 °C 1008.0 hPa WSW 19.0 km/h 19.0 km/h 49 % 0.0 mm
12:21 15.6 °C 4.9 °C 1008.0 hPa WSW 15.6 km/h 15.6 km/h 49 % 0.0 mm
12:26 15.8 °C 4.5 °C 1007.0 hPa SSW 20.4 km/h 20.4 km/h 47 % 0.0 mm
12:31 16.3 °C 5.3 °C 1007.0 hPa WSW 11.1 km/h 11.1 km/h 48 % 0.0 mm
12:36 16.3 °C 4.9 °C 1007.0 hPa West 18.5 km/h 18.5 km/h 47 % 0.0 mm
12:41 16.6 °C 4.9 °C 1007.0 hPa NNW 16.1 km/h 16.1 km/h 46 % 0.0 mm
12:46 16.6 °C 4.6 °C 1007.0 hPa SW 20.4 km/h 20.4 km/h 45 % 0.0 mm
12:51 16.7 °C 4.7 °C 1007.0 hPa SW 13.0 km/h 13.0 km/h 45 % 0.0 mm
12:56 16.9 °C 4.6 °C 1007.0 hPa WSW 20.9 km/h 20.9 km/h 44 % 0.0 mm
13:01 16.9 °C 4.2 °C 1007.0 hPa WSW 20.4 km/h 20.4 km/h 43 % 0.0 mm
13:06 16.9 °C 4.2 °C 1007.0 hPa WNW 16.7 km/h 16.7 km/h 43 % 0.0 mm
13:11 16.7 °C 4.1 °C 1007.0 hPa SW 18.5 km/h 18.5 km/h 43 % 0.0 mm
13:16 16.9 °C 3.9 °C 1007.0 hPa WSW 22.2 km/h 22.2 km/h 42 % 0.0 mm
13:21 17.0 °C 3.7 °C 1007.0 hPa SSW 22.2 km/h 22.2 km/h 41 % 0.0 mm
13:26 17.1 °C 3.7 °C 1007.0 hPa WSW 16.7 km/h 16.7 km/h 41 % 0.0 mm
13:31 17.2 °C 3.4 °C 1007.0 hPa SW 16.7 km/h 16.7 km/h 40 % 0.0 mm
13:36 17.3 °C 3.6 °C 1007.0 hPa WSW 18.5 km/h 18.5 km/h 40 % 0.0 mm
13:41 17.4 °C 3.3 °C 1007.0 hPa West 22.2 km/h 22.2 km/h 39 % 0.0 mm
13:46 17.3 °C 2.8 °C 1007.0 hPa WSW 11.4 km/h 12.6 km/h 38 % 0.0 mm
13:51 17.4 °C 2.6 °C 1007.0 hPa WSW 11.4 km/h 12.6 km/h 37 % 0.0 mm
13:56 17.4 °C 2.2 °C 1007.0 hPa West 11.1 km/h 12.6 km/h 36 % 0.0 mm
14:01 17.2 °C 1.6 °C 1007.0 hPa WSW 9.3 km/h 10.8 km/h 35 % 0.0 mm
14:06 17.1 °C 1.5 °C 1007.0 hPa WSW 5.6 km/h 10.8 km/h 35 % 0.0 mm
14:11 17.1 °C 1.5 °C 1006.0 hPa WSW 9.3 km/h 14.8 km/h 35 % 0.0 mm
14:16 17.0 °C 1.4 °C 1006.0 hPa WSW 9.3 km/h 14.8 km/h 35 % 0.0 mm
14:21 16.7 °C 1.2 °C 1006.0 hPa WSW 9.3 km/h 14.8 km/h 35 % 0.0 mm
14:26 16.6 °C 0.7 °C 1007.0 hPa WSW 9.3 km/h 14.8 km/h 34 % 0.0 mm
14:31 16.4 °C 0.5 °C 1007.0 hPa WSW 11.1 km/h 16.1 km/h 34 % 0.0 mm
14:36 16.4 °C 0.5 °C 1007.0 hPa WSW 11.1 km/h 16.1 km/h 34 % 0.0 mm
14:41 16.5 °C 0.6 °C 1007.0 hPa West 14.8 km/h 14.8 km/h 34 % 0.0 mm
14:51 16.7 °C 0.7 °C 1007.0 hPa SW 13.0 km/h 13.0 km/h 34 % 0.0 mm
14:56 16.5 °C 0.6 °C 1007.0 hPa SW 13.0 km/h 13.0 km/h 34 % 0.0 mm
15:01 16.8 °C 0.8 °C 1007.0 hPa SW 13.0 km/h 13.0 km/h 34 % 0.0 mm
15:06 16.9 °C 0.5 °C 1007.0 hPa West 20.4 km/h 20.4 km/h 33 % 0.0 mm
15:11 16.9 °C 0.5 °C 1007.0 hPa West 21.2 km/h 21.2 km/h 33 % 0.0 mm
15:16 16.9 °C 0.5 °C 1007.0 hPa WNW 14.8 km/h 14.8 km/h 33 % 0.0 mm
15:26 16.8 °C 0.4 °C 1007.0 hPa West 14.8 km/h 14.8 km/h 33 % 0.0 mm
15:31 16.8 °C 0.4 °C 1007.0 hPa South 9.3 km/h 9.3 km/h 33 % 0.0 mm
15:36 16.7 °C 0.3 °C 1007.0 hPa WSW 14.8 km/h 14.8 km/h 33 % 0.0 mm
15:41 16.7 °C 0.3 °C 1008.0 hPa West 27.8 km/h 27.8 km/h 33 % 0.0 mm
15:46 16.8 °C 0.0 °C 1008.0 hPa WSW 11.4 km/h 11.4 km/h 32 % 0.0 mm
15:51 16.7 °C -0.1 °C 1008.0 hPa West 20.9 km/h 20.9 km/h 32 % 0.0 mm
15:56 16.3 °C -0.4 °C 1008.0 hPa WSW 20.4 km/h 20.4 km/h 32 % 0.0 mm
16:01 16.3 °C -0.4 °C 1008.0 hPa WSW 14.8 km/h 14.8 km/h 32 % 0.0 mm
16:06 16.4 °C -0.3 °C 1008.0 hPa WNW 16.7 km/h 16.7 km/h 32 % 0.0 mm
16:11 16.5 °C -0.3 °C 1008.0 hPa West 13.0 km/h 13.0 km/h 32 % 0.0 mm
16:22 16.3 °C -0.9 °C 1008.0 hPa West 14.8 km/h 14.8 km/h 31 % 0.0 mm
16:27 16.2 °C -0.9 °C 1008.0 hPa SW 24.1 km/h 24.1 km/h 31 % 0.0 mm
16:32 16.1 °C -1.1 °C 1008.0 hPa WSW 22.2 km/h 22.2 km/h 31 % 0.0 mm
16:37 16.0 °C -1.2 °C 1008.0 hPa WSW 13.0 km/h 13.0 km/h 31 % 0.0 mm
16:42 16.0 °C -0.7 °C 1008.0 hPa WSW 11.1 km/h 11.1 km/h 32 % 0.0 mm
16:47 15.9 °C -0.8 °C 1008.0 hPa WSW 13.0 km/h 13.0 km/h 32 % 0.0 mm
16:52 15.8 °C -0.9 °C 1008.0 hPa SW 9.3 km/h 9.3 km/h 32 % 0.0 mm
16:57 15.8 °C -0.9 °C 1009.0 hPa WSW 9.3 km/h 9.3 km/h 32 % 0.0 mm
17:02 15.6 °C -1.1 °C 1009.0 hPa WSW 12.2 km/h 12.2 km/h 32 % 0.0 mm
17:07 15.5 °C -1.2 °C 1009.0 hPa WSW 9.7 km/h 9.7 km/h 32 % 0.0 mm
17:12 15.3 °C -1.3 °C 1009.0 hPa WSW 18.5 km/h 18.5 km/h 32 % 0.0 mm
17:17 15.1 °C -1.5 °C 1009.0 hPa SW 7.9 km/h 7.9 km/h 32 % 0.0 mm
17:22 14.9 °C -1.7 °C 1009.0 hPa SSW 15.1 km/h 15.1 km/h 32 % 0.0 mm
17:27 14.7 °C -1.8 °C 1010.0 hPa West 5.8 km/h 5.8 km/h 32 % 0.0 mm
17:32 14.5 °C -2.0 °C 1010.0 hPa WSW 11.1 km/h 11.1 km/h 32 % 0.0 mm
17:37 14.3 °C -2.2 °C 1010.0 hPa West 9.5 km/h 9.5 km/h 32 % 0.0 mm
17:42 14.1 °C -2.4 °C 1009.0 hPa WSW 9.3 km/h 9.3 km/h 32 % 0.0 mm
17:47 14.0 °C -2.4 °C 1009.0 hPa SSW 9.3 km/h 10.0 km/h 32 % 0.0 mm
17:52 13.9 °C -2.6 °C 1009.0 hPa WSW 11.1 km/h 11.1 km/h 32 % 0.0 mm
18:02 13.7 °C -2.3 °C 1010.0 hPa WSW 16.7 km/h 16.7 km/h 33 % 0.0 mm
18:07 13.7 °C -2.3 °C 1010.0 hPa WSW 18.5 km/h 18.5 km/h 33 % 0.0 mm
18:12 13.6 °C -2.4 °C 1010.0 hPa SW 7.9 km/h 7.9 km/h 33 % 0.0 mm
18:17 13.4 °C -2.6 °C 1010.0 hPa SW 6.1 km/h 7.9 km/h 33 % 0.0 mm
18:22 13.4 °C -2.6 °C 1010.0 hPa West 11.1 km/h 11.1 km/h 33 % 0.0 mm
18:27 13.3 °C -2.7 °C 1010.7 hPa WSW 11.1 km/h 11.1 km/h 33 % 0.0 mm
18:32 13.2 °C -2.7 °C 1010.7 hPa West 5.8 km/h 9.0 km/h 33 % 0.0 mm
18:37 13.1 °C -2.8 °C 1010.7 hPa WSW 6.1 km/h 6.9 km/h 33 % 0.0 mm
18:42 13.1 °C -2.4 °C 1010.7 hPa WSW 6.1 km/h 6.9 km/h 34 % 0.0 mm
18:47 13.0 °C -2.5 °C 1010.7 hPa WSW 6.1 km/h 6.9 km/h 34 % 0.0 mm
18:52 13.0 °C -2.5 °C 1010.7 hPa WSW 6.1 km/h 6.9 km/h 34 % 0.0 mm
18:57 12.9 °C -2.6 °C 1010.7 hPa WSW 6.1 km/h 6.9 km/h 34 % 0.0 mm
19:02 12.8 °C -2.7 °C 1010.7 hPa WSW 6.1 km/h 6.9 km/h 34 % 0.0 mm
19:07 12.8 °C -2.3 °C 1010.7 hPa WSW 6.1 km/h 6.9 km/h 35 % 0.0 mm
19:12 12.8 °C -2.3 °C 1010.7 hPa WSW 6.1 km/h 6.9 km/h 35 % 0.0 mm
19:22 12.6 °C -2.1 °C 1010.7 hPa WSW 6.1 km/h 6.9 km/h 36 % 0.0 mm
19:27 12.6 °C -2.1 °C 1011.7 hPa WSW 6.1 km/h 6.9 km/h 36 % 0.0 mm
19:32 12.5 °C -2.2 °C 1011.7 hPa WSW 6.1 km/h 6.9 km/h 36 % 0.0 mm
19:37 12.4 °C -2.3 °C 1011.7 hPa WSW 6.1 km/h 6.9 km/h 36 % 0.0 mm
19:42 12.2 °C -2.1 °C 1011.7 hPa WSW 6.1 km/h 6.9 km/h 37 % 0.0 mm
19:47 12.2 °C -2.1 °C 1011.7 hPa WSW 6.1 km/h 6.9 km/h 37 % 0.0 mm
19:52 12.1 °C -2.2 °C 1011.7 hPa WSW 6.1 km/h 6.9 km/h 37 % 0.0 mm
19:57 12.0 °C -1.9 °C 1011.7 hPa WSW 6.1 km/h 6.9 km/h 38 % 0.0 mm
20:07 11.9 °C -2.0 °C 1011.7 hPa WSW 6.1 km/h 6.9 km/h 38 % 0.0 mm
20:12 12.0 °C -1.9 °C 1012.8 hPa WSW 6.1 km/h 6.9 km/h 38 % 0.0 mm
20:17 11.9 °C -1.6 °C 1012.8 hPa WSW 6.1 km/h 6.9 km/h 39 % 0.0 mm
20:27 11.8 °C -1.7 °C 1012.8 hPa WSW 6.1 km/h 6.9 km/h 39 % 0.0 mm
20:32 11.8 °C -1.7 °C 1012.8 hPa WSW 6.1 km/h 6.9 km/h 39 % 0.0 mm
20:42 11.7 °C -1.8 °C 1012.8 hPa WSW 6.1 km/h 6.9 km/h 39 % 0.0 mm
20:47 11.6 °C -1.6 °C 1012.8 hPa WSW 6.1 km/h 6.9 km/h 40 % 0.0 mm
20:53 11.5 °C -1.7 °C 1012.8 hPa WSW 6.1 km/h 6.9 km/h 40 % 0.0 mm
20:58 11.4 °C -1.7 °C 1012.8 hPa WSW 6.1 km/h 6.9 km/h 40 % 0.0 mm
21:03 11.4 °C -1.7 °C 1012.8 hPa WSW 6.1 km/h 6.9 km/h 40 % 0.0 mm
21:08 11.3 °C -1.8 °C 1012.8 hPa WSW 6.1 km/h 6.9 km/h 40 % 0.0 mm
21:13 11.2 °C -1.9 °C 1012.8 hPa WSW 6.1 km/h 6.9 km/h 40 % 0.0 mm
21:23 11.2 °C -1.6 °C 1012.8 hPa WSW 6.1 km/h 6.9 km/h 41 % 0.0 mm
21:28 11.1 °C -1.7 °C 1012.8 hPa WSW 6.1 km/h 6.9 km/h 41 % 0.0 mm
21:33 11.0 °C -1.8 °C 1012.8 hPa WSW 6.1 km/h 6.9 km/h 41 % 0.0 mm
21:38 11.0 °C -1.8 °C 1012.8 hPa WSW 6.1 km/h 6.9 km/h 41 % 0.0 mm
21:43 11.0 °C -1.8 °C 1013.8 hPa WSW 6.1 km/h 6.9 km/h 41 % 0.0 mm
21:48 10.9 °C -1.8 °C 1013.8 hPa WSW 6.1 km/h 6.9 km/h 41 % 0.0 mm
21:53 10.9 °C -1.8 °C 1013.8 hPa WSW 6.1 km/h 6.9 km/h 41 % 0.0 mm
21:58 10.9 °C -1.8 °C 1013.8 hPa WSW 6.1 km/h 6.9 km/h 41 % 0.0 mm
22:13 10.8 °C -1.6 °C 1013.8 hPa WSW 6.1 km/h 6.9 km/h 42 % 0.0 mm
22:18 10.8 °C -1.9 °C 1013.8 hPa WSW 6.1 km/h 6.9 km/h 41 % 0.0 mm
22:23 10.7 °C -2.1 °C 1013.8 hPa WSW 6.1 km/h 6.9 km/h 41 % 0.0 mm
22:28 10.7 °C -2.1 °C 1013.8 hPa WSW 6.1 km/h 6.9 km/h 41 % 0.0 mm
22:38 10.5 °C -2.2 °C 1013.8 hPa WSW 6.1 km/h 6.9 km/h 41 % 0.0 mm
22:43 10.4 °C -2.3 °C 1013.8 hPa WSW 6.1 km/h 6.9 km/h 41 % 0.0 mm
22:53 10.2 °C -2.2 °C 1013.8 hPa WSW 6.1 km/h 6.9 km/h 42 % 0.0 mm
22:58 10.2 °C -2.2 °C 1013.8 hPa WSW 6.1 km/h 6.9 km/h 42 % 0.0 mm
23:03 10.3 °C -2.1 °C 1013.8 hPa WSW 6.1 km/h 6.9 km/h 42 % 0.0 mm
23:08 10.2 °C -2.2 °C 1013.8 hPa WSW 6.1 km/h 6.9 km/h 42 % 0.0 mm
23:13 10.3 °C -2.1 °C 1013.8 hPa WSW 6.1 km/h 6.9 km/h 42 % 0.0 mm
Meteo Sesrovires
Elogis d' Weather Underground - 3.25 mb

Guio original per  Jim McMurry - jmcmurry@mwt.net Adaptat per a la plantilla per  Wim van der Kuil - Leuven-Template.eu

Trobareu la nostra informacio del temps tambe a:

Weather Underground

AWEKAS